Pinckneyville, Illinois
Current Conditions -  °F | °C
As of 4:15 AM on Sunday 23 Nov 2014 (Local Time) from KSAR Reporting Station
Clear Clear  
Wind Chill: 53°   Ceiling: Unl
Heat Index: 53°   Visibility: 10mi
Dew Point: 46°   Wind: 9mph
Humidity: 75%   Direction: 160°SSE
Pressure: 29.81"   Gusts: NA
Location:  38.08°N, 89.38°W
Report Text: KSAR 231015Z AUTO 16008KT 10SM CLR 12/08 A2981 RMK AO2 T01180075
Loading
Personal Weather Stations






























Interactive Weather Map New forecast layout! Learn more

10-Day Weather Forecast

Advertisements
Track Severe Weather on mobile